首页
METAR-TAF:

METAR-TAF

机场 :

Wichita Falls Municipal Airport / Sheppard Air Force Base

威奇托福尔斯, 得克萨斯州, 美国

纬度: 33-58-43N, 经度: 098-29-34W, 海拔: 309米

当前天气观测

该预报发布于55分钟前的20:52 UTC
风速3节,风向多变
温度 34°C
湿度 44%
气压 1014 hPa
能見度: 16.1公里
天空无云

METAR: KSPS 142052Z VRB03KT 10SM CLR 34/20 A2994 RMK AO2 SLP125 T03440200 56020

时间: 16:47 (21:47 UTC)

预报

该预报发布于4小时和27分钟前的17:20 UTC
预报有效从14日的 18点(UTC)到 15日的 18点(UTC)
风速11节,风向
能見度: 10公里
散云层高于5000英尺
散云层高于25000英尺

TAF: KSPS 141720Z 1418/1518 17011KT P6SM SCT050 SCT250

超过4000个机场的气象观测和天气预报(METAR&TAF报告)。

可查询的气象台以黄色和红色小点在地图上表示。

将鼠标移到小点上方,可查看气象台名称。

然后点击查看天气观测和预报。

如需切换地图:点击带黑十字的绿色按钮放大地图;点击带横线的绿色按钮缩小地图;或者点击绿色箭头查看邻近地区的地图。


METAR-TAF: